Time;durP1;ratioP1;P1;durP2;ratioP2;P2;SDS_P1;SDS_P2;PMS_P1;PMS_P2;Temp;Humidity;BMP_temperature;BMP_pressure;BME280_temperature;BME280_humidity;BME280_pressure;Samples;Min_cycle;Max_cycle;Signal;HPM_P1;HPM_P2
2022/12/24 00:02:06;;;;;;;;;;;;;;;18.35;35.79;100637.41;102143;1329;62060;-81
2022/12/24 00:04:32;;;;;;;;;;;;;;;18.35;35.78;100639.02;102037;1333;62192;-81
2022/12/24 00:06:57;;;;;;;;;;;;;;;18.35;35.70;100642.26;102076;1328;62203;-81
2022/12/24 00:09:22;;;;;;;;;;;;;;;18.35;35.72;100644.21;102080;1321;62091;-81
2022/12/24 00:11:48;;;;;;;;;;;;;;;18.34;35.84;100643.52;102072;1327;62209;-81
2022/12/24 00:14:13;;;;;;;;;;;;;;;18.35;35.90;100645.65;102145;1325;62070;-81
2022/12/24 00:16:39;;;;;;;;;;;;;;;18.34;35.73;100644.61;102162;1330;62114;-81
2022/12/24 00:19:04;;;;;;;;;;;;;;;18.34;35.76;100643.55;102161;1329;62122;-81
2022/12/24 00:21:29;;;;;;;;;;;;;;;18.33;35.76;100643.24;102171;1326;72417;-81
2022/12/24 00:23:56;;;;;;;;;;;;;;;18.33;35.75;100643.77;102166;1326;62180;-81
2022/12/24 00:26:21;;;;;;;;;;;;;;;18.33;35.80;100643.98;102178;1318;62224;-81
2022/12/24 00:28:47;;;;;;;;;;;;;;;18.33;35.76;100643.80;102134;1326;62544;-81
2022/12/24 00:31:13;;;;;;;;;;;;;;;18.33;35.84;100637.58;102150;1326;62175;-81
2022/12/24 00:33:38;;;;;;;;;;;;;;;18.33;35.85;100634.38;102163;1326;62114;-81
2022/12/24 00:36:04;;;;;;;;;;;;;;;18.33;35.83;100636.13;102122;1326;75519;-81
2022/12/24 00:38:30;;;;;;;;;;;;;;;18.32;35.82;100635.48;102160;1326;62082;-81
2022/12/24 00:40:59;;;;;;;;;;;;;;;18.32;35.92;100638.70;102130;1327;62452;-81
2022/12/24 00:43:25;;;;;;;;;;;;;;;18.32;35.76;100637.27;102167;1326;73591;-81
2022/12/24 00:45:50;;;;;;;;;;;;;;;18.32;35.88;100633.73;102115;1321;62224;-81
2022/12/24 00:48:17;;;;;;;;;;;;;;;18.31;35.86;100624.67;102135;1326;60811;-81
2022/12/24 00:50:43;;;;;;;;;;;;;;;18.31;35.73;100622.54;102177;1326;62124;-81
2022/12/24 00:53:08;;;;;;;;;;;;;;;18.31;35.87;100613.64;102161;1329;62083;-81
2022/12/24 00:55:33;;;;;;;;;;;;;;;18.30;35.77;100610.81;102191;1326;62111;-81
2022/12/24 00:57:59;;;;;;;;;;;;;;;18.31;35.91;100606.89;102178;1326;74368;-81
2022/12/24 01:00:24;;;;;;;;;;;;;;;18.31;35.80;100610.98;102185;1330;60236;-81
2022/12/24 01:02:50;;;;;;;;;;;;;;;18.30;35.77;100613.85;102145;1329;62121;-81
2022/12/24 01:05:19;;;;;;;;;;;;;;;18.29;35.93;100612.30;102125;1326;62189;-81
2022/12/24 01:07:44;;;;;;;;;;;;;;;18.29;35.92;100614.97;102155;1326;62217;-81
2022/12/24 01:10:10;;;;;;;;;;;;;;;18.29;35.80;100612.68;102164;1326;62154;-81
2022/12/24 01:12:36;;;;;;;;;;;;;;;18.30;35.79;100617.65;102161;1324;62086;-81
2022/12/24 01:15:01;;;;;;;;;;;;;;;18.29;35.79;100615.71;102154;1326;62112;-81
2022/12/24 01:17:27;;;;;;;;;;;;;;;18.29;35.78;100621.07;102222;1326;62322;-81
2022/12/24 01:19:52;;;;;;;;;;;;;;;18.29;35.91;100624.29;102113;1325;76607;-80
2022/12/24 01:22:18;;;;;;;;;;;;;;;18.28;35.92;100620.93;102036;1333;62140;-80
2022/12/24 01:24:43;;;;;;;;;;;;;;;18.28;35.83;100616.13;102044;1329;62233;-80
2022/12/24 01:27:09;;;;;;;;;;;;;;;18.28;35.95;100609.71;102106;1326;62230;-80
2022/12/24 01:29:34;;;;;;;;;;;;;;;18.28;35.81;100604.04;102085;1327;62212;-81
2022/12/24 01:32:00;;;;;;;;;;;;;;;18.27;35.78;100604.06;102025;1326;62086;-81
2022/12/24 01:34:25;;;;;;;;;;;;;;;18.27;35.80;100597.64;102070;1329;62199;-81
2022/12/24 01:36:51;;;;;;;;;;;;;;;18.27;35.78;100598.00;102152;1326;60912;-81
2022/12/24 01:39:16;;;;;;;;;;;;;;;18.26;35.77;100604.09;102055;1326;62243;-81
2022/12/24 01:44:33;;;;;;;;;;;;;;;18.26;35.87;100608.05;102125;1326;76491;-81
2022/12/24 01:47:18;;;;;;;;;;;;;;;18.26;35.90;100607.00;102013;1326;62109;-81
2022/12/24 01:49:45;;;;;;;;;;;;;;;18.26;35.86;100601.46;102025;1327;62123;-81
2022/12/24 01:52:15;;;;;;;;;;;;;;;18.26;35.99;100603.96;102100;1326;73523;-81
2022/12/24 01:54:51;;;;;;;;;;;;;;;18.26;35.78;100596.66;102004;1328;75377;-81
2022/12/24 01:57:21;;;;;;;;;;;;;;;18.25;35.73;100591.86;101982;1335;62098;-81
2022/12/24 01:59:49;;;;;;;;;;;;;;;18.25;35.86;100589.91;102056;1326;61122;-81
2022/12/24 02:02:14;;;;;;;;;;;;;;;18.25;35.77;100587.63;102164;1325;72930;-81
2022/12/24 02:04:45;;;;;;;;;;;;;;;18.24;35.98;100588.38;102120;1330;61011;-81
2022/12/24 02:07:10;;;;;;;;;;;;;;;18.24;35.88;100589.79;102124;1326;62004;-81
2022/12/24 02:09:36;;;;;;;;;;;;;;;18.25;35.87;100592.27;102089;1328;62114;-81
2022/12/24 02:12:01;;;;;;;;;;;;;;;18.24;35.86;100590.72;102035;1329;62134;-81
2022/12/24 02:14:27;;;;;;;;;;;;;;;18.24;35.92;100590.55;102047;1332;62134;-81
2022/12/24 02:16:58;;;;;;;;;;;;;;;18.24;35.81;100589.30;102012;1328;62207;-79
2022/12/24 02:19:36;;;;;;;;;;;;;;;18.23;35.85;100586.33;102147;1326;61986;-79
2022/12/24 02:22:01;;;;;;;;;;;;;;;18.23;35.86;100584.73;102158;1330;62122;-80
2022/12/24 02:24:33;;;;;;;;;;;;;;;18.23;35.80;100587.39;102144;1329;62081;-80
2022/12/24 02:27:01;;;;;;;;;;;;;;;18.23;35.78;100584.91;102107;1326;74180;-80
2022/12/24 02:29:33;;;;;;;;;;;;;;;18.22;35.90;100576.06;102140;1319;62273;-80
2022/12/24 02:32:00;;;;;;;;;;;;;;;18.22;35.90;100569.46;102025;1327;62074;-80
2022/12/24 02:34:31;;;;;;;;;;;;;;;18.22;35.87;100566.27;102033;1333;72499;-80
2022/12/24 02:37:00;;;;;;;;;;;;;;;18.21;35.86;100567.38;102119;1332;75250;-80
2022/12/24 02:39:45;;;;;;;;;;;;;;;18.21;35.93;100565.21;102153;1325;61039;-80
2022/12/24 02:42:11;;;;;;;;;;;;;;;18.21;35.83;100556.16;102185;1322;62180;-80
2022/12/24 02:44:44;;;;;;;;;;;;;;;18.21;35.88;100551.92;102052;1329;62095;-80
2022/12/24 02:47:10;;;;;;;;;;;;;;;18.20;35.84;100553.34;102086;1333;75419;-80
2022/12/24 02:49:35;;;;;;;;;;;;;;;18.20;35.76;100557.98;102149;1324;62227;-80
2022/12/24 02:52:01;;;;;;;;;;;;;;;18.21;35.85;100561.00;102127;1326;62211;-80
2022/12/24 02:54:26;;;;;;;;;;;;;;;18.20;35.80;100560.52;102128;1333;62157;-80
2022/12/24 02:57:11;;;;;;;;;;;;;;;18.20;35.90;100563.01;102159;1325;62134;-80
2022/12/24 02:59:36;;;;;;;;;;;;;;;18.20;35.91;100559.63;102125;1325;76269;-80
2022/12/24 03:02:02;;;;;;;;;;;;;;;18.19;35.85;100554.47;102130;1323;62338;-80
2022/12/24 03:04:39;;;;;;;;;;;;;;;18.19;35.93;100557.72;102153;1326;62086;-80
2022/12/24 03:07:06;;;;;;;;;;;;;;;18.19;35.97;100561.65;102263;1324;71255;-80
2022/12/24 03:09:31;;;;;;;;;;;;;;;18.19;35.88;100568.25;102256;1326;62124;-80
2022/12/24 03:11:58;;;;;;;;;;;;;;;18.18;35.99;100565.41;102195;1326;62118;-80
2022/12/24 03:14:24;;;;;;;;;;;;;;;18.18;35.83;100564.37;102145;1334;62153;-80
2022/12/24 03:16:49;;;;;;;;;;;;;;;18.18;35.91;100568.81;102190;1325;62223;-80
2022/12/24 03:19:15;;;;;;;;;;;;;;;18.18;35.98;100569.70;102103;1329;62133;-80
2022/12/24 03:21:41;;;;;;;;;;;;;;;18.18;35.97;100572.58;102150;1330;62114;-80
2022/12/24 03:24:08;;;;;;;;;;;;;;;18.18;35.92;100572.58;102173;1330;62213;-80
2022/12/24 03:26:34;;;;;;;;;;;;;;;18.18;35.99;100576.34;102127;1334;62009;-81
2022/12/24 03:28:59;;;;;;;;;;;;;;;18.17;36.01;100579.21;102136;1327;62199;-81
2022/12/24 03:31:26;;;;;;;;;;;;;;;18.17;35.94;100582.23;102160;1326;62532;-81
2022/12/24 03:33:51;;;;;;;;;;;;;;;18.17;35.91;100582.23;102135;1327;62171;-80
2022/12/24 03:36:17;;;;;;;;;;;;;;;18.17;35.98;100580.84;102074;1333;62129;-80
2022/12/24 03:38:43;;;;;;;;;;;;;;;18.16;36.00;100578.21;102181;1333;62270;-80
2022/12/24 03:41:09;;;;;;;;;;;;;;;18.16;35.98;100580.16;102136;1331;72389;-81
2022/12/24 03:43:34;;;;;;;;;;;;;;;18.16;35.97;100582.85;102160;1326;62225;-81
2022/12/24 03:46:04;;;;;;;;;;;;;;;18.16;35.90;100581.05;102175;1322;62152;-81
2022/12/24 03:48:29;;;;;;;;;;;;;;;18.15;36.01;100571.86;102136;1329;62024;-81
2022/12/24 03:50:55;;;;;;;;;;;;;;;18.15;36.08;100573.48;102134;1327;62174;-81
2022/12/24 03:53:20;;;;;;;;;;;;;;;18.15;35.92;100574.88;102126;1325;62182;-80
2022/12/24 03:55:46;;;;;;;;;;;;;;;18.15;35.95;100575.63;102167;1333;62214;-80
2022/12/24 03:58:11;;;;;;;;;;;;;;;18.15;36.07;100582.04;102172;1333;62108;-81
2022/12/24 04:00:36;;;;;;;;;;;;;;;18.14;36.09;100583.30;102149;1329;60975;-79
2022/12/24 04:03:02;;;;;;;;;;;;;;;18.14;35.97;100578.70;102140;1325;62128;-80
2022/12/24 04:05:27;;;;;;;;;;;;;;;18.14;35.97;100579.23;102176;1326;62121;-80
2022/12/24 04:07:52;;;;;;;;;;;;;;;18.13;35.92;100578.20;102201;1332;62191;-80
2022/12/24 04:10:18;;;;;;;;;;;;;;;18.13;36.14;100579.45;102184;1326;61988;-80
2022/12/24 04:12:43;;;;;;;;;;;;;;;18.14;36.03;100581.89;102183;1330;62157;-80
2022/12/24 04:15:09;;;;;;;;;;;;;;;18.13;36.05;100581.08;102149;1330;62172;-80
2022/12/24 04:17:34;;;;;;;;;;;;;;;18.13;35.97;100577.17;102173;1326;60941;-80
2022/12/24 04:20:00;;;;;;;;;;;;;;;18.13;35.93;100577.52;102161;1326;62120;-80
2022/12/24 04:22:25;;;;;;;;;;;;;;;18.12;35.90;100575.41;102143;1330;62129;-80
2022/12/24 04:24:51;;;;;;;;;;;;;;;18.12;36.11;100579.32;102130;1325;62099;-80
2022/12/24 04:27:16;;;;;;;;;;;;;;;18.12;36.03;100582.89;102118;1326;62147;-80
2022/12/24 04:29:41;;;;;;;;;;;;;;;18.12;36.01;100583.81;102099;1330;62084;-81
2022/12/24 04:32:07;;;;;;;;;;;;;;;18.12;35.99;100585.41;102084;1334;62206;-81
2022/12/24 04:34:32;;;;;;;;;;;;;;;18.11;35.99;100587.08;102063;1331;62130;-81
2022/12/24 04:36:58;;;;;;;;;;;;;;;18.12;36.03;100581.18;102055;1329;62135;-81
2022/12/24 04:39:23;;;;;;;;;;;;;;;18.11;35.93;100575.89;102153;1326;62198;-81
2022/12/24 04:41:48;;;;;;;;;;;;;;;18.11;36.09;100572.50;102193;1326;62082;-81
2022/12/24 04:44:14;;;;;;;;;;;;;;;18.10;36.10;100580.17;102150;1328;75318;-81
2022/12/24 04:46:41;;;;;;;;;;;;;;;18.10;36.07;100584.62;102114;1326;62227;-81
2022/12/24 04:49:06;;;;;;;;;;;;;;;18.10;36.03;100588.02;102152;1326;62720;-81
2022/12/24 04:51:32;;;;;;;;;;;;;;;18.10;35.94;100586.05;102049;1333;62183;-80
2022/12/24 04:53:57;;;;;;;;;;;;;;;18.10;36.12;100588.73;102047;1329;62229;-80
2022/12/24 04:56:23;;;;;;;;;;;;;;;18.09;36.07;100588.60;102172;1326;62172;-80
2022/12/24 04:58:49;;;;;;;;;;;;;;;18.10;35.97;100597.48;102132;1332;62248;-80
2022/12/24 05:01:16;;;;;;;;;;;;;;;18.09;36.03;100595.91;102142;1327;62127;-80
2022/12/24 05:03:41;;;;;;;;;;;;;;;18.09;36.09;100595.22;102134;1325;62016;-80
2022/12/24 05:06:08;;;;;;;;;;;;;;;18.09;35.99;100595.76;102056;1328;62137;-80
2022/12/24 05:08:33;;;;;;;;;;;;;;;18.09;36.03;100603.75;102054;1332;61987;-80
2022/12/24 05:10:59;;;;;;;;;;;;;;;18.08;36.01;100602.92;102069;1332;62313;-80
2022/12/24 05:13:26;;;;;;;;;;;;;;;18.08;36.03;100605.23;102062;1326;62241;-80
2022/12/24 05:15:51;;;;;;;;;;;;;;;18.08;36.03;100607.55;102031;1336;62096;-80
2022/12/24 05:18:17;;;;;;;;;;;;;;;18.08;36.13;100602.20;102044;1334;62162;-80
2022/12/24 05:20:42;;;;;;;;;;;;;;;18.07;36.12;100598.70;102126;1332;60887;-80
2022/12/24 05:28:46;;;;;;;;;;;;;;;18.07;35.90;100594.10;102124;1326;76302;-80
2022/12/24 05:31:11;;;;;;;;;;;;;;;18.07;36.14;100597.63;102052;1330;60874;-80
2022/12/24 05:33:37;;;;;;;;;;;;;;;18.06;35.96;100599.64;102115;1332;62141;-80
2022/12/24 05:36:02;;;;;;;;;;;;;;;18.06;35.96;100597.52;102123;1332;62098;-80
2022/12/24 05:38:28;;;;;;;;;;;;;;;18.05;36.05;100601.82;102196;1324;62150;-80
2022/12/24 05:40:54;;;;;;;;;;;;;;;18.06;36.03;100596.12;102138;1332;62074;-80
2022/12/24 05:43:19;;;;;;;;;;;;;;;18.05;35.98;100602.36;102170;1330;62109;-80
2022/12/24 05:45:45;;;;;;;;;;;;;;;18.05;36.03;100599.17;102164;1326;62190;-80
2022/12/24 05:48:10;;;;;;;;;;;;;;;18.05;36.00;100600.28;102207;1333;62597;-80
2022/12/24 05:50:38;;;;;;;;;;;;;;;18.05;35.99;100601.86;102247;1326;62124;-80
2022/12/24 05:53:03;;;;;;;;;;;;;;;18.05;36.14;100607.05;102312;1329;61937;-80
2022/12/24 05:55:28;;;;;;;;;;;;;;;18.05;36.09;100613.27;102294;1326;62241;-81
2022/12/24 05:57:54;;;;;;;;;;;;;;;18.05;35.99;100605.81;102325;1327;61979;-81
2022/12/24 06:00:19;;;;;;;;;;;;;;;18.05;36.01;100606.84;102321;1331;62100;-81
2022/12/24 06:02:45;;;;;;;;;;;;;;;18.05;36.05;100607.37;102222;1331;62240;-81
2022/12/24 06:05:10;;;;;;;;;;;;;;;18.05;36.04;100608.62;102353;1329;62160;-81
2022/12/24 06:07:35;;;;;;;;;;;;;;;18.05;36.02;100605.58;102393;1325;60909;-81
2022/12/24 06:10:01;;;;;;;;;;;;;;;18.05;36.15;100603.08;102394;1330;62151;-81
2022/12/24 06:12:26;;;;;;;;;;;;;;;18.05;36.05;100601.11;102363;1329;62114;-81
2022/12/24 06:14:52;;;;;;;;;;;;;;;18.06;35.99;100601.83;102313;1321;62227;-81
2022/12/24 06:17:17;;;;;;;;;;;;;;;18.05;36.06;100599.84;102183;1329;62122;-81
2022/12/24 06:19:43;;;;;;;;;;;;;;;18.06;36.00;100598.08;102106;1326;60858;-81
2022/12/24 06:22:08;;;;;;;;;;;;;;;18.06;36.01;100602.87;102081;1329;62122;-81
2022/12/24 06:24:34;;;;;;;;;;;;;;;18.05;36.01;100601.28;102133;1326;62249;-81
2022/12/24 06:26:59;;;;;;;;;;;;;;;18.05;36.14;100604.31;102109;1329;62229;-81
2022/12/24 06:29:25;;;;;;;;;;;;;;;18.05;35.97;100601.15;102148;1316;62110;-81
2022/12/24 06:31:50;;;;;;;;;;;;;;;18.05;36.11;100602.92;102294;1314;62290;-81
2022/12/24 06:34:16;;;;;;;;;;;;;;;18.05;36.01;100601.70;102198;1331;62216;-81
2022/12/24 06:36:41;;;;;;;;;;;;;;;18.05;36.05;100595.65;102253;1333;62164;-81
2022/12/24 06:39:07;;;;;;;;;;;;;;;18.05;36.04;100595.31;102190;1330;62192;-81
2022/12/24 06:41:32;;;;;;;;;;;;;;;18.04;36.14;100591.40;102197;1325;62217;-81
2022/12/24 06:43:58;;;;;;;;;;;;;;;18.04;36.15;100588.18;102168;1332;62083;-80
2022/12/24 06:46:23;;;;;;;;;;;;;;;18.04;36.10;100589.63;102182;1330;62200;-81
2022/12/24 06:48:49;;;;;;;;;;;;;;;18.04;36.07;100596.74;102197;1326;62124;-81
2022/12/24 06:51:14;;;;;;;;;;;;;;;18.04;36.05;100593.91;102247;1333;62237;-81
2022/12/24 06:53:40;;;;;;;;;;;;;;;18.04;36.10;100589.83;102218;1326;62224;-81
2022/12/24 06:56:06;;;;;;;;;;;;;;;18.04;36.06;100584.85;102250;1329;62127;-81
2022/12/24 06:58:32;;;;;;;;;;;;;;;18.04;36.11;100586.08;102214;1330;62056;-81
2022/12/24 07:00:57;;;;;;;;;;;;;;;18.04;35.96;100598.16;102261;1333;60834;-81
2022/12/24 07:03:22;;;;;;;;;;;;;;;18.04;36.06;100606.17;102179;1326;62290;-81
2022/12/24 07:05:48;;;;;;;;;;;;;;;18.04;36.01;100607.45;102207;1326;62082;-81
2022/12/24 07:08:13;;;;;;;;;;;;;;;18.04;35.97;100606.39;102187;1325;62113;-81
2022/12/24 07:10:39;;;;;;;;;;;;;;;18.04;36.00;100610.65;102159;1330;62176;-81
2022/12/24 07:13:04;;;;;;;;;;;;;;;18.04;36.00;100604.95;102136;1332;62200;-81
2022/12/24 07:15:29;;;;;;;;;;;;;;;18.03;36.06;100609.80;102195;1329;62122;-81
2022/12/24 07:17:55;;;;;;;;;;;;;;;18.03;36.04;100604.81;102148;1330;62105;-81
2022/12/24 07:20:20;;;;;;;;;;;;;;;18.03;36.02;100602.85;102220;1320;62151;-81
2022/12/24 07:22:46;;;;;;;;;;;;;;;18.02;36.08;100603.64;102144;1332;62192;-81
2022/12/24 07:25:11;;;;;;;;;;;;;;;18.03;35.94;100605.58;102130;1332;62172;-81
2022/12/24 07:27:37;;;;;;;;;;;;;;;18.03;36.02;100610.92;102156;1330;62142;-81
2022/12/24 07:30:02;;;;;;;;;;;;;;;18.02;35.94;100609.33;102179;1332;62010;-81
2022/12/24 07:32:28;;;;;;;;;;;;;;;18.02;36.07;100609.70;102182;1330;62207;-81
2022/12/24 07:34:53;;;;;;;;;;;;;;;18.02;36.04;100608.67;102147;1329;62120;-81
2022/12/24 07:37:19;;;;;;;;;;;;;;;18.02;36.06;100605.79;102143;1332;62192;-81
2022/12/24 07:39:44;;;;;;;;;;;;;;;18.02;35.99;100602.44;102132;1330;62506;-80
2022/12/24 07:42:09;;;;;;;;;;;;;;;18.01;36.09;100603.52;102155;1332;62098;-80
2022/12/24 07:44:35;;;;;;;;;;;;;;;18.02;35.98;100605.27;102157;1332;62200;-80
2022/12/24 07:47:00;;;;;;;;;;;;;;;18.01;35.89;100602.79;102201;1332;62202;-80
2022/12/24 07:49:26;;;;;;;;;;;;;;;18.01;36.04;100604.05;102211;1324;62509;-80
2022/12/24 07:51:51;;;;;;;;;;;;;;;18.01;36.15;100598.70;102170;1334;62209;-80
2022/12/24 07:54:17;;;;;;;;;;;;;;;18.01;35.99;100600.34;102188;1333;62106;-81
2022/12/24 07:56:42;;;;;;;;;;;;;;;18.01;36.02;100598.89;102154;1332;60905;-81
2022/12/24 07:59:08;;;;;;;;;;;;;;;18.01;36.07;100599.82;102169;1329;62192;-81
2022/12/24 08:01:34;;;;;;;;;;;;;;;18.01;36.08;100606.95;102136;1332;62119;-81
2022/12/24 08:03:59;;;;;;;;;;;;;;;18.01;35.98;100609.42;102185;1331;60895;-81
2022/12/24 08:06:24;;;;;;;;;;;;;;;18.00;35.99;100612.13;102161;1332;62050;-81
2022/12/24 08:08:50;;;;;;;;;;;;;;;18.00;35.97;100612.29;102149;1326;62103;-81
2022/12/24 08:11:15;;;;;;;;;;;;;;;18.01;36.12;100614.07;102223;1329;62083;-81
2022/12/24 08:13:41;;;;;;;;;;;;;;;18.00;35.92;100615.35;102134;1332;62192;-81
2022/12/24 08:16:07;;;;;;;;;;;;;;;18.00;36.15;100609.99;102140;1327;60867;-81
2022/12/24 08:18:32;;;;;;;;;;;;;;;18.00;36.04;100606.80;101610;1332;785946;-81
2022/12/24 08:20:57;;;;;;;;;;;;;;;17.99;36.01;100606.84;102163;1332;62002;-81
2022/12/24 08:23:23;;;;;;;;;;;;;;;18.00;36.09;100611.79;102140;1332;62176;-81
2022/12/24 08:25:49;;;;;;;;;;;;;;;18.00;35.96;100611.98;102101;1332;62116;-81
2022/12/24 08:28:16;;;;;;;;;;;;;;;17.99;36.01;100604.70;102112;1319;62122;-81
2022/12/24 08:30:41;;;;;;;;;;;;;;;17.99;36.03;100599.91;102122;1328;61986;-81
2022/12/24 08:33:07;;;;;;;;;;;;;;;17.99;36.08;100601.86;102063;1332;62267;-81
2022/12/24 08:35:34;;;;;;;;;;;;;;;17.99;36.04;100594.23;102179;1332;62117;-81
2022/12/24 08:37:59;;;;;;;;;;;;;;;17.99;36.12;100597.08;102132;1326;72578;-81
2022/12/24 08:40:24;;;;;;;;;;;;;;;17.99;36.07;100592.99;102104;1334;62179;-81
2022/12/24 08:42:50;;;;;;;;;;;;;;;17.99;36.05;100594.95;102156;1323;62049;-81
2022/12/24 08:45:16;;;;;;;;;;;;;;;17.99;36.04;100599.92;102181;1333;62273;-81
2022/12/24 08:47:41;;;;;;;;;;;;;;;17.98;36.21;100610.99;102224;1330;62193;-81
2022/12/24 08:50:07;;;;;;;;;;;;;;;17.99;36.04;100599.95;102274;1332;62118;-81
2022/12/24 08:52:32;;;;;;;;;;;;;;;17.98;36.07;100587.14;102267;1317;62149;-81
2022/12/24 08:54:58;;;;;;;;;;;;;;;17.98;36.19;100586.97;102219;1332;62127;-81
2022/12/24 08:57:23;;;;;;;;;;;;;;;17.98;36.06;100583.95;102310;1326;62091;-81
2022/12/24 08:59:48;;;;;;;;;;;;;;;17.98;36.14;100580.92;102148;1333;62153;-81
2022/12/24 09:02:14;;;;;;;;;;;;;;;17.98;36.06;100577.35;102208;1332;62130;-81
2022/12/24 09:04:39;;;;;;;;;;;;;;;17.98;36.10;100580.02;102204;1329;62233;-81
2022/12/24 09:07:08;;;;;;;;;;;;;;;17.98;36.16;100575.95;102203;1329;62047;-81
2022/12/24 09:09:33;;;;;;;;;;;;;;;17.98;36.21;100579.66;102215;1326;60886;-81
2022/12/24 09:11:59;;;;;;;;;;;;;;;17.97;36.14;100582.40;102145;1332;62160;-81
2022/12/24 09:14:24;;;;;;;;;;;;;;;17.98;36.11;100581.31;102213;1332;62119;-81
2022/12/24 09:16:50;;;;;;;;;;;;;;;17.98;36.16;100575.98;102245;1330;62327;-81
2022/12/24 09:19:15;;;;;;;;;;;;;;;17.98;36.17;100572.55;102302;1326;62151;-81
2022/12/24 09:21:41;;;;;;;;;;;;;;;17.99;36.20;100565.75;102161;1332;62115;-81
2022/12/24 09:24:06;;;;;;;;;;;;;;;17.98;36.23;100567.73;102085;1334;62136;-81
2022/12/24 09:26:32;;;;;;;;;;;;;;;17.99;36.11;100568.94;102138;1326;60462;-81
2022/12/24 09:28:59;;;;;;;;;;;;;;;17.98;36.12;100572.90;102081;1326;62085;-81
2022/12/24 09:31:25;;;;;;;;;;;;;;;17.99;36.17;100569.29;102125;1332;62104;-81
2022/12/24 09:33:50;;;;;;;;;;;;;;;17.99;36.18;100567.19;102142;1326;62135;-81
2022/12/24 09:36:17;;;;;;;;;;;;;;;17.98;36.16;100564.02;102104;1334;62157;-81
2022/12/24 09:38:42;;;;;;;;;;;;;;;17.98;36.20;100565.27;102123;1319;75291;-81
2022/12/24 09:41:28;;;;;;;;;;;;;;;17.98;36.12;100563.49;102078;1330;62169;-82
2022/12/24 09:43:55;;;;;;;;;;;;;;;17.98;36.24;100564.55;102083;1333;62202;-81
2022/12/24 09:46:21;;;;;;;;;;;;;;;17.98;36.07;100563.67;102129;1332;72428;-81
2022/12/24 09:48:47;;;;;;;;;;;;;;;17.97;36.20;100561.39;102124;1324;63033;-81
2022/12/24 09:51:20;;;;;;;;;;;;;;;17.97;36.14;100559.42;102172;1327;62198;-81
2022/12/24 09:53:48;;;;;;;;;;;;;;;17.98;36.10;100566.18;102140;1325;62086;-81
2022/12/24 09:56:16;;;;;;;;;;;;;;;17.97;36.25;100556.05;102173;1330;71528;-81
2022/12/24 09:58:46;;;;;;;;;;;;;;;17.97;36.20;100555.35;102093;1327;76190;-81
2022/12/24 10:01:12;;;;;;;;;;;;;;;17.97;36.22;100563.54;102117;1334;62004;-81
2022/12/24 10:03:37;;;;;;;;;;;;;;;17.97;36.20;100563.55;102134;1332;62178;-81
2022/12/24 10:06:35;;;;;;;;;;;;;;;17.97;36.22;100551.26;102153;1329;62035;-81
2022/12/24 10:09:00;;;;;;;;;;;;;;;17.96;36.21;100554.33;101983;1332;76489;-81
2022/12/24 10:11:45;;;;;;;;;;;;;;;17.97;36.22;100560.70;102149;1327;62084;-81
2022/12/24 10:14:10;;;;;;;;;;;;;;;17.97;36.25;100569.98;102229;1327;62086;-81
2022/12/24 10:16:36;;;;;;;;;;;;;;;17.97;36.23;100572.84;102173;1329;62192;-80
2022/12/24 10:19:09;;;;;;;;;;;;;;;17.96;36.27;100570.18;102149;1319;62124;-80
2022/12/24 10:21:44;;;;;;;;;;;;;;;17.96;36.30;100573.58;102168;1332;62031;-80
2022/12/24 10:24:11;;;;;;;;;;;;;;;17.96;36.26;100576.08;102215;1329;62001;-81
2022/12/24 10:26:43;;;;;;;;;;;;;;;17.96;36.25;100582.27;102183;1332;73823;-80
2022/12/24 10:29:28;;;;;;;;;;;;;;;17.96;36.20;100583.55;102174;1333;76493;-80
2022/12/24 10:32:06;;;;;;;;;;;;;;;17.96;36.26;100582.84;102196;1326;62007;-80
2022/12/24 10:34:34;;;;;;;;;;;;;;;17.96;36.44;100583.18;102248;1330;61979;-82
2022/12/24 10:37:01;;;;;;;;;;;;;;;17.95;36.31;100578.79;102187;1326;73612;-80
2022/12/24 10:39:27;;;;;;;;;;;;;;;17.96;36.29;100578.53;102204;1320;75305;-81
2022/12/24 10:41:54;;;;;;;;;;;;;;;17.96;36.34;100576.80;102125;1329;62245;-81
2022/12/24 10:44:24;;;;;;;;;;;;;;;17.96;36.28;100578.94;102138;1332;62217;-81
2022/12/24 10:46:49;;;;;;;;;;;;;;;17.96;36.30;100579.11;102133;1329;72514;-81
2022/12/24 10:49:16;;;;;;;;;;;;;;;17.95;36.36;100577.88;102195;1329;62206;-80
2022/12/24 10:52:04;;;;;;;;;;;;;;;17.96;36.29;100574.33;102159;1332;61992;-80
2022/12/24 10:54:37;;;;;;;;;;;;;;;17.96;36.37;100577.70;102135;1328;62127;-81
2022/12/24 10:57:03;;;;;;;;;;;;;;;17.96;36.40;100573.77;102103;1329;72604;-81
2022/12/24 10:59:29;;;;;;;;;;;;;;;17.95;36.36;100575.02;102130;1332;62288;-81
2022/12/24 11:01:55;;;;;;;;;;;;;;;17.96;36.37;100574.84;102230;1329;62103;-81
2022/12/24 11:04:21;;;;;;;;;;;;;;;17.96;36.29;100577.16;102178;1326;62201;-81
2022/12/24 11:06:54;;;;;;;;;;;;;;;17.95;36.44;100576.83;102139;1327;62110;-81
2022/12/24 11:09:20;;;;;;;;;;;;;;;17.95;36.50;100578.97;102189;1326;74489;-81
2022/12/24 11:11:46;;;;;;;;;;;;;;;17.95;36.44;100578.27;102185;1326;62091;-81
2022/12/24 11:14:13;;;;;;;;;;;;;;;17.95;36.37;100573.27;102148;1325;62132;-81
2022/12/24 11:16:38;;;;;;;;;;;;;;;17.95;36.43;100573.12;102114;1329;62157;-81
2022/12/24 11:19:04;;;;;;;;;;;;;;;17.95;36.42;100566.17;102113;1333;62086;-82
2022/12/24 11:21:34;;;;;;;;;;;;;;;17.94;36.56;100562.30;102126;1332;62207;-81
2022/12/24 11:24:11;;;;;;;;;;;;;;;17.94;36.53;100563.02;102184;1329;62130;-81
2022/12/24 11:26:37;;;;;;;;;;;;;;;17.94;36.42;100556.40;102191;1326;72517;-81
2022/12/24 11:29:05;;;;;;;;;;;;;;;17.94;36.52;100552.50;102118;1329;62234;-81
2022/12/24 11:31:34;;;;;;;;;;;;;;;17.94;36.53;100557.14;102212;1326;62099;-81
2022/12/24 11:33:59;;;;;;;;;;;;;;;17.93;36.41;100556.61;102162;1323;62060;-81
2022/12/24 11:36:26;;;;;;;;;;;;;;;17.93;36.42;100556.64;102163;1333;62233;-81
2022/12/24 11:38:55;;;;;;;;;;;;;;;17.94;36.52;100552.33;102123;1326;62132;-81
2022/12/24 11:41:21;;;;;;;;;;;;;;;17.94;36.43;100558.92;102178;1326;62126;-81
2022/12/24 11:43:47;;;;;;;;;;;;;;;17.94;36.55;100561.04;102057;1334;62638;-81
2022/12/24 11:46:15;;;;;;;;;;;;;;;17.94;36.53;100562.46;102130;1325;62143;-81
2022/12/24 11:48:41;;;;;;;;;;;;;;;17.94;36.61;100566.20;102142;1326;75629;-81
2022/12/24 11:51:06;;;;;;;;;;;;;;;17.94;36.54;100567.98;102163;1326;62081;-81
2022/12/24 11:53:37;;;;;;;;;;;;;;;17.95;36.65;100569.20;102177;1326;62101;-81
2022/12/24 11:56:05;;;;;;;;;;;;;;;17.94;36.56;100564.77;102103;1332;73440;-81
2022/12/24 11:58:42;;;;;;;;;;;;;;;17.95;36.62;100562.27;102141;1329;76376;-81
2022/12/24 12:01:24;;;;;;;;;;;;;;;17.95;36.62;100563.86;102169;1326;61249;-81
2022/12/24 12:03:53;;;;;;;;;;;;;;;17.95;36.75;100560.67;102142;1327;62089;-80
2022/12/24 12:06:31;;;;;;;;;;;;;;;17.95;36.62;100559.05;102124;1329;73404;-80
2022/12/24 12:08:59;;;;;;;;;;;;;;;17.95;36.70;100557.45;102206;1326;75403;-81
2022/12/24 12:11:24;;;;;;;;;;;;;;;17.95;36.75;100557.64;102245;1324;61867;-81
2022/12/24 12:13:50;;;;;;;;;;;;;;;17.95;36.60;100562.59;102150;1326;62157;-81
2022/12/24 12:16:19;;;;;;;;;;;;;;;17.95;36.74;100565.80;102099;1326;62053;-81
2022/12/24 12:18:46;;;;;;;;;;;;;;;17.95;36.61;100566.32;102162;1326;76388;-81
2022/12/24 12:21:12;;;;;;;;;;;;;;;17.94;36.74;100560.13;102229;1330;62108;-81
2022/12/24 12:23:50;;;;;;;;;;;;;;;17.95;36.72;100556.73;102202;1330;62227;-81
2022/12/24 12:26:21;;;;;;;;;;;;;;;17.94;36.74;100555.86;102136;1324;72644;-81
2022/12/24 12:28:48;;;;;;;;;;;;;;;17.94;36.74;100559.79;102129;1326;75363;-81
2022/12/24 12:31:13;;;;;;;;;;;;;;;17.94;36.83;100557.11;102171;1332;62420;-81
2022/12/24 12:33:40;;;;;;;;;;;;;;;17.94;36.65;100558.19;102226;1329;62214;-81